Time;durP1;ratioP1;P1;durP2;ratioP2;P2;SDS_P1;SDS_P2;PMS_P1;PMS_P2;Temp;Humidity;BMP_temperature;BMP_pressure;BME280_temperature;BME280_humidity;BME280_pressure;Samples;Min_cycle;Max_cycle;Signal;HPM_P1;HPM_P2
2022/04/15 00:00:14;;;;;;;16.77;11.37;;;9.70;99.90;;;;;;5053013;28;20205;-52
2022/04/15 00:02:42;;;;;;;19.67;13.63;;;9.70;99.90;;;;;;5052636;28;20237;-52
2022/04/15 00:07:56;;;;;;;16.93;12.50;;;9.60;99.90;;;;;;5053115;28;20213;-52
2022/04/15 00:10:28;;;;;;;18.73;13.27;;;9.60;99.90;;;;;;5053501;28;20579;-52
2022/04/15 00:12:56;;;;;;;16.67;11.73;;;9.60;99.90;;;;;;5053323;28;20244;-52
2022/04/15 00:15:25;;;;;;;20.53;13.23;;;9.60;99.90;;;;;;5053103;28;20301;-52
2022/04/15 00:17:53;;;;;;;16.83;13.20;;;9.50;99.90;;;;;;5053491;28;20219;-52
2022/04/15 00:20:21;;;;;;;20.23;14.40;;;9.40;99.90;;;;;;5053084;28;20201;-52
2022/04/15 00:22:50;;;;;;;16.23;12.57;;;9.40;99.90;;;;;;5052375;28;20226;-52
2022/04/15 00:25:18;;;;;;;16.77;12.53;;;9.40;99.90;;;;;;5053552;28;20629;-52
2022/04/15 00:27:52;;;;;;;18.77;13.00;;;9.30;99.90;;;;;;5052981;28;20208;-52
2022/04/15 00:30:21;;;;;;;17.17;12.97;;;9.30;99.90;;;;;;5053520;28;20207;-52
2022/04/15 00:32:49;;;;;;;16.70;12.33;;;9.30;99.90;;;;;;5051052;28;20248;-52
2022/04/15 00:35:17;;;;;;;18.47;14.10;;;9.20;99.90;;;;;;5053061;28;20225;-52
2022/04/15 00:37:47;;;;;;;16.63;13.40;;;9.20;99.90;;;;;;5053316;28;20336;-52
2022/04/15 00:40:15;;;;;;;15.90;12.83;;;9.20;99.90;;;;;;5052874;28;20210;-52
2022/04/15 00:42:43;;;;;;;15.77;12.30;;;9.20;99.90;;;;;;5052380;28;20227;-52
2022/04/15 00:45:13;;;;;;;18.53;14.10;;;9.20;99.90;;;;;;5052929;28;20205;-52
2022/04/15 00:47:48;;;;;;;20.13;13.77;;;9.20;99.90;;;;;;5052997;28;20206;-52
2022/04/15 00:50:16;;;;;;;20.80;14.10;;;9.10;99.90;;;;;;5053292;28;20259;-52
2022/04/15 00:52:47;;;;;;;17.73;13.33;;;9.10;99.90;;;;;;5052168;28;20268;-52
2022/04/15 00:55:17;;;;;;;17.90;13.53;;;9.00;99.90;;;;;;5051655;28;20201;-51
2022/04/15 00:57:49;;;;;;;18.80;13.57;;;8.90;99.90;;;;;;5053334;28;20259;-52
2022/04/15 01:00:20;;;;;;;17.57;12.43;;;8.80;99.90;;;;;;5052520;28;20252;-51
2022/04/15 01:02:49;;;;;;;17.77;12.20;;;8.80;99.90;;;;;;5051059;28;20226;-51
2022/04/15 01:05:18;;;;;;;17.53;13.33;;;8.80;99.90;;;;;;5052158;28;20210;-52
2022/04/15 01:07:49;;;;;;;18.80;13.43;;;8.80;99.90;;;;;;5052140;28;20265;-51
2022/04/15 01:10:19;;;;;;;16.60;13.27;;;8.80;99.90;;;;;;5051971;28;20690;-52
2022/04/15 01:12:48;;;;;;;19.93;12.80;;;8.80;99.90;;;;;;5052182;28;20756;-52
2022/04/15 01:15:38;;;;;;;16.10;13.40;;;8.70;99.90;;;;;;5052152;28;20573;-51
2022/04/15 01:18:07;;;;;;;18.27;14.00;;;8.70;99.90;;;;;;5052157;28;20251;-52
2022/04/15 01:20:36;;;;;;;19.07;13.10;;;8.70;99.90;;;;;;5052405;28;20210;-52
2022/04/15 01:23:07;;;;;;;20.40;14.30;;;8.60;99.90;;;;;;5031342;28;20288;-52
2022/04/15 01:25:36;;;;;;;19.90;13.33;;;8.60;99.90;;;;;;5032278;28;20213;-52
2022/04/15 01:28:05;;;;;;;21.07;13.27;;;8.60;99.90;;;;;;5032237;28;20221;-51
2022/04/15 01:30:33;;;;;;;17.87;13.90;;;8.60;99.90;;;;;;5042815;28;20212;-51
2022/04/15 01:33:02;;;;;;;17.20;12.60;;;8.60;99.90;;;;;;5050335;28;20226;-52
2022/04/15 01:35:34;;;;;;;17.33;13.47;;;8.60;99.90;;;;;;5052284;28;20275;-52
2022/04/15 01:38:06;;;;;;;18.37;13.57;;;8.50;99.90;;;;;;5051897;28;20585;-52
2022/04/15 01:40:36;;;;;;;18.30;13.10;;;8.50;99.90;;;;;;5051955;28;20217;-51
2022/04/15 01:43:04;;;;;;;19.30;12.93;;;8.50;99.90;;;;;;5051398;28;20232;-52
2022/04/15 01:45:34;;;;;;;17.70;13.40;;;8.50;99.90;;;;;;5043085;28;20210;-52
2022/04/15 01:48:02;;;;;;;18.00;13.60;;;8.40;99.90;;;;;;5032190;28;20210;-52
2022/04/15 01:50:31;;;;;;;16.83;13.17;;;8.40;99.90;;;;;;5031697;28;20698;-52
2022/04/15 01:52:59;;;;;;;16.77;13.03;;;8.30;99.90;;;;;;5030701;28;20687;-51
2022/04/15 01:55:28;;;;;;;19.20;13.23;;;8.40;99.90;;;;;;5031319;28;20217;-52
2022/04/15 01:57:58;;;;;;;19.53;13.60;;;8.30;99.90;;;;;;5031627;28;20276;-52
2022/04/15 02:00:26;;;;;;;15.67;12.57;;;8.30;99.90;;;;;;5044807;28;20209;-52
2022/04/15 02:02:55;;;;;;;15.37;12.30;;;8.30;99.90;;;;;;5050797;28;20295;-51
2022/04/15 02:05:23;;;;;;;18.77;13.80;;;8.30;99.90;;;;;;5051616;28;20252;-52
2022/04/15 02:07:51;;;;;;;16.60;13.70;;;8.30;99.90;;;;;;5033292;28;20264;-51
2022/04/15 02:10:19;;;;;;;17.57;12.47;;;8.20;99.90;;;;;;5033055;28;20578;-51
2022/04/15 02:12:47;;;;;;;18.60;12.63;;;8.20;99.90;;;;;;5051646;28;20228;-51
2022/04/15 02:15:17;;;;;;;15.83;13.33;;;8.20;99.90;;;;;;5051781;28;20247;-51
2022/04/15 02:17:45;;;;;;;17.73;13.80;;;8.20;99.90;;;;;;5050964;28;20209;-51
2022/04/15 02:20:13;;;;;;;18.97;14.10;;;8.10;99.90;;;;;;5051665;28;20670;-51
2022/04/15 02:22:41;;;;;;;17.87;13.27;;;8.10;99.90;;;;;;5051236;28;20287;-51
2022/04/15 02:25:10;;;;;;;19.30;14.53;;;8.10;99.90;;;;;;5050829;28;20622;-52
2022/04/15 02:27:38;;;;;;;21.63;14.90;;;8.10;99.90;;;;;;5051303;28;20209;-51
2022/04/15 02:30:07;;;;;;;19.00;14.33;;;8.10;99.90;;;;;;5050970;28;20255;-51
2022/04/15 02:32:36;;;;;;;23.93;15.47;;;8.00;99.90;;;;;;5049473;28;20222;-51
2022/04/15 02:35:08;;;;;;;27.60;16.27;;;8.00;99.90;;;;;;5050782;28;20740;-51
2022/04/15 02:37:36;;;;;;;21.17;15.90;;;8.00;99.90;;;;;;5050616;28;20234;-51
2022/04/15 02:40:06;;;;;;;24.03;16.20;;;7.90;99.90;;;;;;5051349;28;20214;-51
2022/04/15 02:42:35;;;;;;;19.43;15.00;;;7.90;99.90;;;;;;5050511;28;20229;-51
2022/04/15 02:45:04;;;;;;;26.37;15.40;;;8.00;99.90;;;;;;5046583;28;20260;-51
2022/04/15 02:47:33;;;;;;;20.27;15.07;;;7.90;99.90;;;;;;5037360;28;20340;-51
2022/04/15 02:50:03;;;;;;;23.40;16.07;;;7.90;99.90;;;;;;5051054;28;20716;-51
2022/04/15 02:52:33;;;;;;;21.00;15.37;;;7.90;99.90;;;;;;5050097;28;20319;-51
2022/04/15 02:55:01;;;;;;;21.47;16.80;;;7.90;99.90;;;;;;5051052;28;20213;-51
2022/04/15 02:57:29;;;;;;;22.27;14.80;;;7.90;99.90;;;;;;5050829;28;20214;-51
2022/04/15 02:59:58;;;;;;;22.13;16.60;;;7.80;99.90;;;;;;5051041;28;20251;-51
2022/04/15 03:02:27;;;;;;;21.47;15.50;;;7.80;99.90;;;;;;5050687;28;20235;-51
2022/04/15 03:04:55;;;;;;;21.33;15.13;;;7.80;99.90;;;;;;5051113;28;20209;-51
2022/04/15 03:07:25;;;;;;;21.60;15.10;;;7.70;99.90;;;;;;5050880;28;20202;-51
2022/04/15 03:09:53;;;;;;;24.17;16.53;;;7.70;99.90;;;;;;5050572;28;20205;-51
2022/04/15 03:12:21;;;;;;;20.83;15.77;;;7.60;99.90;;;;;;5050376;28;20287;-51
2022/04/15 03:14:51;;;;;;;21.77;16.50;;;7.60;99.90;;;;;;5051089;28;20594;-51
2022/04/15 03:17:19;;;;;;;23.03;16.30;;;7.60;99.90;;;;;;5050559;28;20216;-51
2022/04/15 03:19:47;;;;;;;22.73;16.87;;;7.50;99.90;;;;;;5050970;28;20208;-51
2022/04/15 03:22:17;;;;;;;22.40;16.40;;;7.50;99.90;;;;;;5049153;28;20283;-51
2022/04/15 03:24:47;;;;;;;23.13;18.10;;;7.50;99.90;;;;;;5051212;28;20236;-51
2022/04/15 03:27:15;;;;;;;23.57;17.27;;;7.50;99.90;;;;;;5051071;28;20226;-51
2022/04/15 03:29:43;;;;;;;26.40;17.63;;;7.40;99.90;;;;;;5054884;28;20215;-51
2022/04/15 03:32:11;;;;;;;26.27;17.33;;;7.40;99.90;;;;;;5054254;28;20240;-52
2022/04/15 03:34:40;;;;;;;24.63;18.03;;;7.30;99.90;;;;;;5053485;28;20251;-51
2022/04/15 03:37:08;;;;;;;24.77;18.23;;;7.30;99.90;;;;;;5054401;28;20209;-51
2022/04/15 03:39:36;;;;;;;26.63;18.47;;;7.30;99.90;;;;;;5054492;28;20208;-51
2022/04/15 03:42:07;;;;;;;26.77;18.53;;;7.30;99.90;;;;;;5053895;28;20638;-51
2022/04/15 03:44:35;;;;;;;27.57;18.00;;;7.30;99.90;;;;;;5054444;28;20193;-51
2022/04/15 03:47:04;;;;;;;29.97;20.93;;;7.30;99.90;;;;;;5054059;28;20205;-51
2022/04/15 03:49:33;;;;;;;26.60;18.70;;;7.20;99.90;;;;;;5054141;28;20208;-50
2022/04/15 03:52:01;;;;;;;26.97;19.33;;;7.20;99.90;;;;;;5053045;28;20240;-50
2022/04/15 03:54:29;;;;;;;29.23;21.00;;;7.20;99.90;;;;;;5054047;28;20210;-51
2022/04/15 03:56:58;;;;;;;27.43;20.27;;;7.20;99.90;;;;;;5054514;28;20215;-51
2022/04/15 03:59:27;;;;;;;28.70;19.13;;;7.10;99.90;;;;;;5050490;28;20202;-51
2022/04/15 04:01:55;;;;;;;28.57;18.97;;;7.10;99.90;;;;;;5032748;28;20635;-51
2022/04/15 04:04:23;;;;;;;27.57;19.63;;;7.10;99.90;;;;;;5047432;28;20194;-51
2022/04/15 04:06:52;;;;;;;28.33;19.43;;;7.00;99.90;;;;;;5053270;28;20243;-51
2022/04/15 04:09:20;;;;;;;29.93;20.27;;;7.00;99.90;;;;;;5054040;28;20247;-50
2022/04/15 04:11:48;;;;;;;27.57;18.83;;;7.00;99.90;;;;;;5052726;28;20227;-51
2022/04/15 04:14:16;;;;;;;30.03;19.13;;;7.00;99.90;;;;;;5053972;28;20374;-51
2022/04/15 04:16:46;;;;;;;30.13;19.97;;;6.90;99.90;;;;;;5053028;28;20270;-51
2022/04/15 04:19:14;;;;;;;33.60;21.57;;;6.90;99.90;;;;;;5053448;28;20204;-51
2022/04/15 04:21:42;;;;;;;30.77;20.53;;;6.90;99.90;;;;;;5052718;28;20716;-51
2022/04/15 04:24:12;;;;;;;30.93;20.50;;;6.90;99.90;;;;;;5053298;28;20205;-51
2022/04/15 04:26:40;;;;;;;31.53;21.23;;;6.90;99.90;;;;;;5052941;28;20214;-50
2022/04/15 04:29:08;;;;;;;32.20;21.63;;;6.90;99.90;;;;;;5052891;28;20204;-51
2022/04/15 04:31:39;;;;;;;32.07;20.73;;;6.80;99.90;;;;;;5053338;28;20192;-52
2022/04/15 04:34:09;;;;;;;31.40;21.13;;;6.80;99.90;;;;;;5052578;28;20228;-51
2022/04/15 04:36:37;;;;;;;31.10;21.53;;;6.80;99.90;;;;;;5052540;28;20212;-51
2022/04/15 04:39:08;;;;;;;33.83;23.17;;;6.80;99.90;;;;;;5052193;28;20672;-51
2022/04/15 04:41:38;;;;;;;31.90;22.00;;;6.80;99.90;;;;;;5052570;28;20654;-51
2022/04/15 04:44:07;;;;;;;31.20;21.57;;;6.80;99.90;;;;;;5052404;28;20257;-51
2022/04/15 04:46:36;;;;;;;38.30;23.67;;;6.80;99.90;;;;;;5052906;28;20205;-52
2022/04/15 04:49:04;;;;;;;30.77;22.10;;;6.80;99.90;;;;;;5051155;28;20229;-52
2022/04/15 04:51:34;;;;;;;34.30;22.43;;;6.90;99.90;;;;;;5046938;28;20212;-51
2022/04/15 04:54:02;;;;;;;34.07;22.83;;;6.90;99.90;;;;;;5049801;28;20222;-52
2022/04/15 04:56:30;;;;;;;31.27;22.07;;;6.90;99.90;;;;;;5050010;28;20205;-52
2022/04/15 04:58:58;;;;;;;32.70;21.80;;;6.90;99.90;;;;;;5049291;28;20625;-51
2022/04/15 05:01:27;;;;;;;29.40;20.73;;;7.00;99.90;;;;;;5048251;28;20224;-52
2022/04/15 05:03:55;;;;;;;38.77;23.73;;;7.00;99.90;;;;;;5050300;28;20206;-51
2022/04/15 05:06:23;;;;;;;30.70;20.30;;;7.40;99.90;;;;;;5051768;28;20213;-52
2022/04/15 05:08:53;;;;;;;26.50;19.83;;;8.00;99.90;;;;;;5052250;28;20264;-52
2022/04/15 05:11:21;;;;;;;29.00;19.90;;;8.40;99.90;;;;;;5049819;28;20256;-52
2022/04/15 05:13:50;;;;;;;25.37;19.00;;;8.80;99.90;;;;;;5051451;28;20213;-51
2022/04/15 05:16:18;;;;;;;26.43;18.80;;;9.10;99.90;;;;;;5049481;28;20253;-52
2022/04/15 05:18:46;;;;;;;23.93;18.33;;;9.10;99.90;;;;;;5045581;28;20658;-52
2022/04/15 05:21:15;;;;;;;25.20;18.47;;;9.20;99.90;;;;;;5050462;28;20208;-52
2022/04/15 05:23:45;;;;;;;21.53;17.13;;;9.60;99.90;;;;;;5048521;28;20230;-52
2022/04/15 05:26:15;;;;;;;21.47;16.13;;;9.70;99.90;;;;;;5050200;28;20208;-52
2022/04/15 05:28:44;;;;;;;23.60;18.00;;;9.90;99.90;;;;;;5051524;28;20209;-52
2022/04/15 05:31:12;;;;;;;22.43;16.60;;;9.50;99.90;;;;;;5048897;28;20227;-52
2022/04/15 05:33:41;;;;;;;25.47;17.43;;;9.30;99.90;;;;;;5050478;28;20745;-52
2022/04/15 05:36:09;;;;;;;23.50;17.80;;;9.00;99.90;;;;;;5051338;28;20226;-51
2022/04/15 05:38:37;;;;;;;22.10;17.03;;;8.80;99.90;;;;;;5051481;28;20206;-51
2022/04/15 05:41:11;;;;;;;23.80;17.87;;;8.60;99.90;;;;;;5048943;28;20213;-51
2022/04/15 05:43:42;;;;;;;23.10;16.67;;;8.60;99.90;;;;;;5050712;28;20239;-51
2022/04/15 05:46:11;;;;;;;19.33;15.43;;;8.60;99.90;;;;;;5051002;28;20545;-51
2022/04/15 05:48:39;;;;;;;23.67;16.90;;;8.80;99.90;;;;;;5050063;28;20235;-51
2022/04/15 05:51:07;;;;;;;22.10;16.13;;;8.80;99.90;;;;;;5051014;28;20666;-51
2022/04/15 05:53:35;;;;;;;22.50;17.47;;;8.80;99.90;;;;;;5044271;28;20635;-51
2022/04/15 05:56:04;;;;;;;23.73;16.07;;;8.70;99.90;;;;;;5048776;28;20220;-51
2022/04/15 05:58:32;;;;;;;18.23;15.27;;;8.80;99.90;;;;;;5048944;28;20284;-52
2022/04/15 06:01:02;;;;;;;21.57;16.67;;;8.70;99.90;;;;;;5041439;28;20205;-52
2022/04/15 06:03:32;;;;;;;21.67;16.87;;;8.70;99.90;;;;;;5050950;28;20599;-52
2022/04/15 06:06:00;;;;;;;24.30;17.10;;;8.80;99.90;;;;;;5050910;28;20204;-52
2022/04/15 06:08:29;;;;;;;22.37;17.40;;;8.80;99.90;;;;;;5045812;28;20259;-50
2022/04/15 06:10:57;;;;;;;23.50;17.40;;;8.80;99.90;;;;;;5049550;28;20222;-51
2022/04/15 06:13:26;;;;;;;22.00;17.20;;;8.90;99.90;;;;;;5045544;28;20229;-50
2022/04/15 06:15:56;;;;;;;28.77;19.03;;;9.00;99.90;;;;;;5047251;28;20229;-51
2022/04/15 06:18:29;;;;;;;21.50;16.70;;;9.10;99.90;;;;;;5048115;28;20230;-51
2022/04/15 06:20:57;;;;;;;25.90;19.57;;;9.30;99.90;;;;;;5047536;28;20202;-51
2022/04/15 06:23:25;;;;;;;21.47;17.90;;;9.40;99.90;;;;;;5047015;28;20221;-51
2022/04/15 06:25:53;;;;;;;28.03;18.40;;;9.50;99.90;;;;;;5046581;28;20206;-50
2022/04/15 06:28:22;;;;;;;22.63;16.70;;;9.50;99.90;;;;;;5032733;28;20206;-51
2022/04/15 06:30:50;;;;;;;24.10;17.93;;;9.60;99.90;;;;;;5040089;28;20659;-50
2022/04/15 06:33:20;;;;;;;23.47;18.30;;;9.70;99.90;;;;;;5030040;28;20256;-50
2022/04/15 06:35:52;;;;;;;24.30;17.70;;;9.80;99.90;;;;;;5037067;28;20713;-50
2022/04/15 06:38:20;;;;;;;21.40;16.33;;;9.90;99.90;;;;;;5050588;28;20240;-51
2022/04/15 06:40:48;;;;;;;24.20;17.77;;;9.90;99.90;;;;;;5049726;28;20650;-51
2022/04/15 06:43:16;;;;;;;26.57;19.77;;;9.90;99.90;;;;;;5049860;28;20241;-50
2022/04/15 06:45:44;;;;;;;27.60;20.77;;;10.00;99.90;;;;;;5049821;28;20632;-51
2022/04/15 06:48:13;;;;;;;26.10;20.70;;;10.10;99.90;;;;;;5039975;28;20240;-51
2022/04/15 06:50:41;;;;;;;28.10;19.60;;;10.20;99.90;;;;;;5038181;28;20236;-51
2022/04/15 06:53:11;;;;;;;28.00;20.67;;;10.30;99.90;;;;;;5040187;28;20229;-51
2022/04/15 06:55:39;;;;;;;27.13;21.03;;;10.40;99.90;;;;;;5034361;28;20280;-50
2022/04/15 06:58:07;;;;;;;26.23;19.77;;;10.50;99.90;;;;;;5045445;28;20206;-51
2022/04/15 07:00:36;;;;;;;24.87;19.30;;;10.50;99.90;;;;;;5044559;28;20202;-50
2022/04/15 07:03:04;;;;;;;23.13;19.37;;;10.60;99.90;;;;;;5039641;28;20230;-50
2022/04/15 07:05:33;;;;;;;23.57;18.73;;;10.80;99.90;;;;;;5041428;28;20268;-51
2022/04/15 07:08:05;;;;;;;25.20;19.27;;;10.90;99.90;;;;;;5046609;28;20577;-51
2022/04/15 07:10:35;;;;;;;21.23;18.13;;;11.00;99.90;;;;;;5045376;28;20205;-50
2022/04/15 07:13:04;;;;;;;23.30;18.53;;;11.10;99.90;;;;;;5049324;28;20229;-49
2022/04/15 07:15:33;;;;;;;24.70;20.50;;;11.10;99.90;;;;;;5052788;28;20228;-49
2022/04/15 07:18:03;;;;;;;29.83;19.93;;;11.30;99.90;;;;;;5054411;28;20271;-50
2022/04/15 07:20:32;;;;;;;23.63;18.70;;;11.30;99.90;;;;;;5046612;28;20198;-51
2022/04/15 07:23:01;;;;;;;24.27;19.90;;;11.30;99.90;;;;;;5052002;28;20244;-51
2022/04/15 07:25:30;;;;;;;24.73;19.20;;;11.40;99.90;;;;;;5049614;28;20209;-50
2022/04/15 07:28:00;;;;;;;29.83;20.27;;;11.40;99.90;;;;;;5051334;28;20205;-50
2022/04/15 07:30:29;;;;;;;24.23;19.73;;;11.50;99.90;;;;;;5050606;28;20230;-50
2022/04/15 07:32:59;;;;;;;20.80;16.93;;;11.50;99.90;;;;;;5055382;28;20237;-49
2022/04/15 07:35:28;;;;;;;20.13;16.53;;;11.60;99.90;;;;;;5054721;28;20793;-50
2022/04/15 07:37:56;;;;;;;19.30;15.83;;;11.70;99.90;;;;;;5051415;28;20738;-51
2022/04/15 07:40:28;;;;;;;19.50;14.87;;;11.80;99.90;;;;;;5055731;28;20209;-51
2022/04/15 07:42:58;;;;;;;17.57;14.63;;;11.90;99.90;;;;;;5056356;28;20230;-50
2022/04/15 07:45:27;;;;;;;18.27;13.57;;;12.00;99.90;;;;;;5050345;28;20198;-50
2022/04/15 07:47:56;;;;;;;14.67;12.30;;;12.10;99.90;;;;;;5056215;28;20252;-50
2022/04/15 07:50:25;;;;;;;18.30;11.77;;;12.10;99.90;;;;;;5056187;28;20215;-51
2022/04/15 07:52:57;;;;;;;14.47;10.90;;;12.10;99.90;;;;;;5054938;28;20774;-52
2022/04/15 07:55:26;;;;;;;14.47;9.83;;;12.10;99.90;;;;;;5054571;28;20210;-50
2022/04/15 07:57:54;;;;;;;14.57;8.93;;;12.00;99.90;;;;;;5053902;28;20209;-51
2022/04/15 08:00:23;;;;;;;9.87;7.97;;;11.90;99.90;;;;;;5052209;28;20216;-50
2022/04/15 08:02:53;;;;;;;11.10;7.93;;;11.90;99.90;;;;;;5053872;28;20221;-50
2022/04/15 08:05:21;;;;;;;9.57;8.07;;;11.90;99.90;;;;;;5054402;28;20206;-51
2022/04/15 08:07:50;;;;;;;11.30;8.10;;;12.00;99.90;;;;;;5055439;28;20205;-51
2022/04/15 08:10:18;;;;;;;7.77;6.73;;;12.10;99.90;;;;;;5053469;28;20801;-50
2022/04/15 08:12:48;;;;;;;8.00;7.20;;;12.30;99.90;;;;;;5053219;28;20319;-51
2022/04/15 08:15:17;;;;;;;7.97;6.73;;;12.30;99.90;;;;;;5046529;28;20205;-51
2022/04/15 08:17:45;;;;;;;7.70;6.30;;;12.30;99.90;;;;;;5048571;28;20202;-51
2022/04/15 08:20:15;;;;;;;7.97;6.13;;;12.40;99.90;;;;;;5048700;28;20233;-50
2022/04/15 08:22:43;;;;;;;8.30;6.23;;;12.20;99.90;;;;;;5054223;28;20713;-50
2022/04/15 08:25:11;;;;;;;8.73;6.60;;;12.10;99.90;;;;;;5055808;28;20259;-50
2022/04/15 08:27:39;;;;;;;8.27;6.07;;;12.20;99.90;;;;;;5054317;28;20197;-51
2022/04/15 08:30:09;;;;;;;8.13;6.30;;;12.30;99.90;;;;;;5051872;28;20692;-50
2022/04/15 08:32:37;;;;;;;6.67;5.90;;;12.40;99.90;;;;;;5051332;28;20311;-50
2022/04/15 08:35:12;;;;;;;6.73;6.03;;;12.50;99.90;;;;;;5052580;28;20213;-50
2022/04/15 08:37:42;;;;;;;9.90;6.53;;;12.60;99.90;;;;;;5052199;28;20298;-51
2022/04/15 08:40:12;;;;;;;7.33;6.10;;;12.70;99.90;;;;;;5052536;28;20216;-50
2022/04/15 08:42:42;;;;;;;6.80;5.97;;;12.70;99.90;;;;;;5051698;28;20256;-51
2022/04/15 08:45:12;;;;;;;6.63;5.33;;;12.90;99.90;;;;;;5051591;28;20674;-51
2022/04/15 08:47:41;;;;;;;7.03;5.77;;;13.00;99.90;;;;;;5047155;28;20217;-51
2022/04/15 08:50:12;;;;;;;7.53;5.87;;;13.00;99.90;;;;;;5044694;28;20221;-50
2022/04/15 08:52:42;;;;;;;6.63;5.83;;;13.00;99.90;;;;;;5051271;28;20722;-51
2022/04/15 08:55:11;;;;;;;7.10;6.10;;;13.20;99.90;;;;;;5051880;28;20566;-52
2022/04/15 08:57:39;;;;;;;6.23;5.63;;;13.10;99.90;;;;;;5051474;28;20214;-50
2022/04/15 09:00:09;;;;;;;7.00;6.30;;;13.10;99.90;;;;;;5048683;28;20206;-50
2022/04/15 09:02:37;;;;;;;7.93;6.20;;;13.00;99.90;;;;;;5049247;28;20226;-50
2022/04/15 09:05:11;;;;;;;7.57;6.00;;;12.90;99.90;;;;;;5049311;28;20679;-51
2022/04/15 09:07:41;;;;;;;6.73;5.60;;;13.00;99.90;;;;;;5044219;28;20251;-50
2022/04/15 09:10:11;;;;;;;6.70;6.03;;;13.20;99.90;;;;;;5046057;28;20205;-50
2022/04/15 09:12:41;;;;;;;6.83;6.07;;;13.50;99.90;;;;;;5045417;28;20217;-50
2022/04/15 09:15:14;;;;;;;6.10;5.37;;;13.40;99.90;;;;;;5046191;28;20233;-50
2022/04/15 09:17:49;;;;;;;7.37;6.13;;;13.60;99.90;;;;;;5048502;28;20634;-49
2022/04/15 09:20:18;;;;;;;6.90;6.20;;;13.40;99.90;;;;;;5044058;28;20259;-50
2022/04/15 09:22:48;;;;;;;8.53;6.77;;;13.50;99.90;;;;;;5045260;28;20769;-51
2022/04/15 09:25:16;;;;;;;10.43;7.13;;;13.60;99.90;;;;;;5048119;28;20205;-48
2022/04/15 09:27:45;;;;;;;8.83;7.50;;;13.60;99.90;;;;;;5046811;28;20201;-51
2022/04/15 09:30:13;;;;;;;7.80;6.83;;;13.40;99.90;;;;;;5045983;28;20205;-51
2022/04/15 09:32:42;;;;;;;8.10;7.07;;;13.50;99.90;;;;;;5050207;28;20229;-50
2022/04/15 09:35:16;;;;;;;8.33;7.07;;;13.60;99.90;;;;;;5040450;28;20209;-51
2022/04/15 09:37:44;;;;;;;11.47;7.73;;;13.60;99.90;;;;;;5041174;28;20590;-50
2022/04/15 09:40:15;;;;;;;8.57;6.90;;;13.70;99.90;;;;;;5046152;28;20860;-51
2022/04/15 09:42:48;;;;;;;8.87;7.17;;;14.00;99.90;;;;;;5041427;28;20752;-50
2022/04/15 09:45:17;;;;;;;7.33;6.63;;;13.80;99.90;;;;;;5044324;28;20235;-50
2022/04/15 09:47:52;;;;;;;7.30;6.60;;;13.70;99.90;;;;;;5044237;28;20206;-50
2022/04/15 09:50:27;;;;;;;7.03;6.33;;;13.60;99.90;;;;;;5043095;28;20208;-50
2022/04/15 09:53:07;;;;;;;7.80;7.00;;;13.60;99.90;;;;;;5035638;28;20233;-50
2022/04/15 09:55:39;;;;;;;7.73;6.70;;;13.50;99.90;;;;;;5037846;28;20870;-50
2022/04/15 09:58:11;;;;;;;9.67;6.60;;;13.60;99.90;;;;;;5043751;28;20213;-49
2022/04/15 10:00:40;;;;;;;8.10;7.13;;;13.70;99.90;;;;;;5044578;28;20614;-50
2022/04/15 10:03:11;;;;;;;8.23;6.70;;;13.60;99.90;;;;;;5045967;28;20233;-50
2022/04/15 10:05:40;;;;;;;7.30;6.60;;;13.50;99.90;;;;;;5043852;28;20222;-50
2022/04/15 10:08:10;;;;;;;8.60;7.27;;;13.50;99.90;;;;;;5043942;28;20198;-50
2022/04/15 10:10:40;;;;;;;7.93;7.13;;;13.50;99.90;;;;;;5042043;28;20205;-50
2022/04/15 10:13:08;;;;;;;10.20;8.00;;;13.60;99.90;;;;;;5041145;28;20229;-51
2022/04/15 10:15:37;;;;;;;9.43;7.13;;;13.80;99.90;;;;;;5050998;28;20213;-51
2022/04/15 10:18:06;;;;;;;9.03;7.13;;;13.90;99.90;;;;;;5051048;28;20295;-50
2022/04/15 10:20:37;;;;;;;7.57;6.87;;;14.10;99.90;;;;;;5050329;28;20209;-51
2022/04/15 10:23:06;;;;;;;8.00;6.90;;;14.00;99.90;;;;;;5050371;28;20309;-50
2022/04/15 10:25:36;;;;;;;8.67;6.90;;;14.10;99.90;;;;;;5050971;28;20210;-50
2022/04/15 10:28:07;;;;;;;8.17;6.77;;;14.20;99.90;;;;;;5050410;28;20228;-50
2022/04/15 10:30:38;;;;;;;8.67;6.83;;;13.80;99.90;;;;;;5050233;28;20308;-49
2022/04/15 10:33:06;;;;;;;9.97;6.67;;;13.90;99.90;;;;;;5049977;28;20283;-50
2022/04/15 10:35:36;;;;;;;8.87;7.90;;;14.00;99.90;;;;;;5050350;28;20228;-51
2022/04/15 10:38:11;;;;;;;8.13;7.10;;;13.70;99.90;;;;;;5049368;28;20225;-51
2022/04/15 10:40:44;;;;;;;9.07;7.63;;;13.70;99.90;;;;;;5048860;28;20201;-50
2022/04/15 10:43:23;;;;;;;8.67;7.77;;;13.70;99.90;;;;;;5047588;28;20232;-50
2022/04/15 10:46:13;;;;;;;8.70;7.67;;;13.70;99.90;;;;;;5047822;28;20301;-50
2022/04/15 10:48:42;;;;;;;9.90;8.20;;;13.70;99.90;;;;;;5049064;28;20862;-51
2022/04/15 10:51:23;;;;;;;10.93;8.83;;;13.80;99.90;;;;;;5044849;28;20205;-50
2022/04/15 10:53:51;;;;;;;10.53;9.10;;;13.90;99.90;;;;;;5046788;28;20279;-51
2022/04/15 10:56:20;;;;;;;10.20;9.10;;;13.80;99.90;;;;;;5043946;28;20672;-51
2022/04/15 11:01:53;;;;;;;10.77;9.67;;;13.40;99.90;;;;;;5045492;28;20225;-51
2022/04/15 11:04:26;;;;;;;12.83;9.90;;;13.10;99.90;;;;;;5049324;28;20682;-49
2022/04/15 11:06:55;;;;;;;12.90;9.40;;;12.90;99.90;;;;;;5048993;28;20210;-50
2022/04/15 11:09:25;;;;;;;12.60;10.67;;;12.80;99.90;;;;;;5049462;28;20633;-51
2022/04/15 11:11:54;;;;;;;14.40;10.90;;;12.90;99.90;;;;;;5048223;28;20229;-50
2022/04/15 11:14:35;;;;;;;12.83;11.17;;;12.80;99.90;;;;;;5042915;28;20209;-51
2022/04/15 11:17:04;;;;;;;14.20;11.03;;;12.90;99.90;;;;;;5047754;28;20212;-50
2022/04/15 11:19:34;;;;;;;15.10;11.40;;;12.70;99.90;;;;;;5041254;28;20206;-50
2022/04/15 11:22:02;;;;;;;14.13;10.57;;;12.70;99.90;;;;;;5042407;28;20668;-50
2022/04/15 11:24:33;;;;;;;12.83;10.47;;;12.60;99.90;;;;;;5041229;28;20206;-50
2022/04/15 11:27:04;;;;;;;15.30;12.00;;;12.70;99.90;;;;;;5048496;28;20217;-50
2022/04/15 11:29:34;;;;;;;12.17;10.27;;;12.60;99.90;;;;;;5049107;28;20736;-50
2022/04/15 11:32:06;;;;;;;12.37;10.27;;;12.50;99.90;;;;;;5044653;28;20221;-50
2022/04/15 11:34:35;;;;;;;12.03;10.67;;;12.40;99.90;;;;;;5049267;28;20304;-50
2022/04/15 11:37:05;;;;;;;12.27;10.60;;;12.40;99.90;;;;;;5049902;28;20214;-50
2022/04/15 11:39:35;;;;;;;12.73;10.10;;;12.30;99.90;;;;;;5049204;28;20567;-51
2022/04/15 11:42:12;;;;;;;13.00;11.23;;;12.30;99.90;;;;;;5049055;28;20756;-50
2022/04/15 11:44:42;;;;;;;12.57;10.73;;;12.30;99.90;;;;;;5048094;28;20255;-50
2022/04/15 11:47:25;;;;;;;15.30;11.90;;;12.20;99.90;;;;;;5050559;28;20209;-50
2022/04/15 11:49:53;;;;;;;14.40;11.07;;;12.10;99.90;;;;;;5050819;28;20289;-50
2022/04/15 11:52:23;;;;;;;14.23;11.60;;;12.00;99.90;;;;;;5050409;28;20245;-51
2022/04/15 11:54:51;;;;;;;13.63;11.80;;;12.00;99.90;;;;;;5053437;28;20205;-50
2022/04/15 11:57:20;;;;;;;13.87;12.17;;;11.80;99.90;;;;;;5052459;28;20606;-50
2022/04/15 11:59:51;;;;;;;14.33;11.87;;;11.80;99.90;;;;;;5053427;28;20228;-50
2022/04/15 12:02:22;;;;;;;14.90;11.70;;;11.80;99.90;;;;;;5052930;28;20241;-50
2022/04/15 12:04:53;;;;;;;13.53;11.47;;;11.90;99.90;;;;;;5050181;28;20209;-51
2022/04/15 12:07:23;;;;;;;15.50;11.50;;;11.90;99.90;;;;;;5052591;28;20221;-50
2022/04/15 12:09:53;;;;;;;11.87;10.57;;;11.80;99.90;;;;;;5052890;28;20220;-50
2022/04/15 12:12:23;;;;;;;14.73;10.93;;;11.80;99.90;;;;;;5050579;28;20687;-50
2022/04/15 12:14:53;;;;;;;14.27;11.00;;;11.80;99.90;;;;;;5049906;28;20212;-48
2022/04/15 12:17:24;;;;;;;13.83;10.97;;;11.90;99.90;;;;;;5052260;28;20328;-50
2022/04/15 12:19:53;;;;;;;11.60;10.50;;;11.80;99.90;;;;;;5051274;28;20218;-50
2022/04/15 12:22:21;;;;;;;11.03;9.93;;;11.90;99.90;;;;;;5051526;28;20233;-50
2022/04/15 12:24:49;;;;;;;11.23;9.83;;;12.00;99.90;;;;;;5053169;28;20267;-50
2022/04/15 12:27:18;;;;;;;11.83;10.20;;;12.20;99.90;;;;;;5052684;28;20224;-50
2022/04/15 12:29:51;;;;;;;13.37;9.63;;;12.30;99.90;;;;;;5052434;28;20210;-50
2022/04/15 12:32:29;;;;;;;10.87;9.67;;;12.50;99.90;;;;;;5051828;28;20229;-50
2022/04/15 12:35:11;;;;;;;11.07;9.20;;;12.60;99.90;;;;;;5049550;28;20228;-50
2022/04/15 12:37:42;;;;;;;9.47;8.47;;;12.50;99.90;;;;;;5051914;28;20213;-49
2022/04/15 12:40:29;;;;;;;9.83;8.83;;;12.50;99.90;;;;;;5050670;28;20212;-50
2022/04/15 12:43:09;;;;;;;9.10;7.67;;;12.50;99.90;;;;;;5048555;28;20245;-50
2022/04/15 12:45:48;;;;;;;11.07;9.33;;;12.50;99.90;;;;;;5050160;28;20235;-50
2022/04/15 12:48:19;;;;;;;11.03;9.47;;;12.60;99.90;;;;;;5043516;28;20198;-50
2022/04/15 12:50:48;;;;;;;11.57;9.43;;;12.50;99.90;;;;;;5050006;28;20206;-50
2022/04/15 12:53:18;;;;;;;8.17;7.37;;;12.60;99.90;;;;;;5047882;28;20225;-50
2022/04/15 12:55:47;;;;;;;7.60;6.90;;;12.60;99.90;;;;;;5050243;28;20553;-50